Terminal Aerodrome Forecast
Issued by NWS Mt. Holly, NJ

Home | Current Version | Previous Version | Text Only | Print | Product List | Glossary On
Versions: 1 2 3 4 5 6 7 8 9 10 11 12 13 14 15 16 17 18 19 20 21 22 23 24 25 26 27 28 29 30 31 32 33 34 35 36 37 38 39 40 41 42 43 44 45 46 47 48
406
FTUS41 KPHI 161122
TAFILG
TAF
KILG 161122Z 1612/1712 VRB02KT 4SM -SN OVC030
     FM161400 VRB02KT 3SM -SN BR OVC010
      TEMPO 1614/1616 2SM -SNRA OVC008
     FM161600 VRB02KT 3SM -SNRA OVC008
     FM162000 05005KT 4SM -RA BR OVC008
     FM170300 06006KT 2SM -RA OVC003=

USA.gov is the U.S. government's official web portal to all federal, state and local government web resources and services.